Time;durP1;ratioP1;P1;durP2;ratioP2;P2;SDS_P1;SDS_P2;PMS_P1;PMS_P2;Temp;Humidity;BMP_temperature;BMP_pressure;BME280_temperature;BME280_humidity;BME280_pressure;Samples;Min_cycle;Max_cycle;Signal;HPM_P1;HPM_P2
2023/01/14 00:01:14;;;;;;;17.25;4.43;;;7.10;99.90;;;;;;4994316;28;20038;-78
2023/01/14 00:03:40;;;;;;;16.23;3.67;;;7.00;99.90;;;;;;5009986;28;20504;-79
2023/01/14 00:06:06;;;;;;;18.50;3.35;;;6.90;99.90;;;;;;5010890;28;20038;-79
2023/01/14 00:08:33;;;;;;;15.00;3.60;;;6.90;99.90;;;;;;4994552;28;20041;-78
2023/01/14 00:11:04;;;;;;;17.42;3.90;;;7.20;99.90;;;;;;5010843;28;20120;-80
2023/01/14 00:13:33;;;;;;;16.52;3.35;;;7.20;99.90;;;;;;5010213;28;20121;-78
2023/01/14 00:15:58;;;;;;;18.40;3.97;;;7.20;99.90;;;;;;5011178;28;20046;-79
2023/01/14 00:18:25;;;;;;;19.52;5.47;;;7.10;99.90;;;;;;5012157;28;20038;-78
2023/01/14 00:21:01;;;;;;;14.55;3.40;;;7.10;99.90;;;;;;5012070;28;20038;-79
2023/01/14 00:23:27;;;;;;;22.05;3.53;;;7.00;99.90;;;;;;5009992;28;20090;-79
2023/01/14 00:25:53;;;;;;;22.25;3.88;;;7.10;99.90;;;;;;5011080;28;20046;-78
2023/01/14 00:28:19;;;;;;;16.73;3.70;;;6.90;99.90;;;;;;5012193;28;20520;-78
2023/01/14 00:30:45;;;;;;;19.55;3.95;;;7.10;99.90;;;;;;5010842;28;20057;-78
2023/01/14 00:33:10;;;;;;;16.02;3.83;;;7.00;99.90;;;;;;5009977;28;20042;-79
2023/01/14 00:35:36;;;;;;;26.80;4.60;;;7.20;99.90;;;;;;4994447;28;20129;-79
2023/01/14 00:38:01;;;;;;;22.73;3.88;;;7.00;99.90;;;;;;5010606;28;20133;-79
2023/01/14 00:40:27;;;;;;;22.65;4.38;;;6.90;99.90;;;;;;5010785;28;20051;-78
2023/01/14 00:42:52;;;;;;;22.00;4.22;;;7.20;99.90;;;;;;5009849;28;20553;-78
2023/01/14 00:45:18;;;;;;;21.95;6.00;;;7.00;99.90;;;;;;5010681;28;20079;-80
2023/01/14 00:47:43;;;;;;;23.02;4.57;;;7.00;99.90;;;;;;5010559;28;20133;-79
2023/01/14 00:50:10;;;;;;;19.23;4.10;;;7.00;99.90;;;;;;5010504;28;20041;-78
2023/01/14 00:52:36;;;;;;;18.80;5.05;;;7.20;99.90;;;;;;5010843;28;20045;-78
2023/01/14 00:55:01;;;;;;;20.50;3.92;;;7.20;99.90;;;;;;5010208;28;20053;-79
2023/01/14 00:57:27;;;;;;;18.27;4.22;;;7.10;99.90;;;;;;5010632;28;20084;-79
2023/01/14 00:59:52;;;;;;;15.90;3.42;;;7.20;99.90;;;;;;5010514;28;20050;-78
2023/01/14 01:02:18;;;;;;;15.52;4.50;;;7.10;99.90;;;;;;5009591;28;20042;-77
2023/01/14 01:04:43;;;;;;;21.73;3.60;;;7.20;99.90;;;;;;4994130;28;20045;-78
2023/01/14 01:07:09;;;;;;;16.33;3.05;;;7.30;99.90;;;;;;5011486;28;20042;-79
2023/01/14 01:09:34;;;;;;;18.63;4.40;;;7.20;99.90;;;;;;5010263;28;20042;-78
2023/01/14 01:12:00;;;;;;;26.38;4.22;;;7.40;99.90;;;;;;5010016;28;20108;-77
2023/01/14 01:14:25;;;;;;;18.48;3.35;;;7.40;99.90;;;;;;5010987;28;20034;-77
2023/01/14 01:16:51;;;;;;;12.52;3.65;;;7.30;99.90;;;;;;5011579;28;20096;-77
2023/01/14 01:19:16;;;;;;;23.52;5.28;;;7.40;99.90;;;;;;5010111;28;20411;-79
2023/01/14 01:21:42;;;;;;;20.15;3.10;;;7.20;99.90;;;;;;5031735;23;20056;-78
2023/01/14 01:24:08;;;;;;;18.17;3.28;;;7.30;99.90;;;;;;4991873;28;20158;-79
2023/01/14 01:26:33;;;;;;;14.15;2.88;;;7.40;99.90;;;;;;4992865;28;20045;-79
2023/01/14 01:28:59;;;;;;;15.90;3.28;;;7.50;99.90;;;;;;5008990;28;20045;-78
2023/01/14 01:31:27;;;;;;;19.45;3.90;;;7.50;99.90;;;;;;4992932;28;20109;-79
2023/01/14 01:33:53;;;;;;;19.75;3.50;;;7.40;99.90;;;;;;5008588;28;20098;-78
2023/01/14 01:36:21;;;;;;;14.32;3.53;;;7.40;99.90;;;;;;4993620;28;20737;-80
2023/01/14 01:38:48;;;;;;;13.23;3.00;;;7.50;99.90;;;;;;5016165;28;20045;-81
2023/01/14 01:41:25;;;;;;;20.58;3.42;;;7.40;99.90;;;;;;5032363;28;20045;-81
2023/01/14 01:44:20;;;;;;;13.40;3.50;;;7.20;99.90;;;;;;5019587;28;20049;-81
2023/01/14 01:46:45;;;;;;;12.73;2.90;;;7.20;99.90;;;;;;5023867;28;20054;-80
2023/01/14 01:49:21;;;;;;;14.07;3.85;;;7.20;99.90;;;;;;5031235;28;20057;-80
2023/01/14 01:51:55;;;;;;;21.10;5.13;;;7.20;99.90;;;;;;5019094;28;20125;-80
2023/01/14 01:54:26;;;;;;;14.68;3.22;;;7.20;99.90;;;;;;5024570;28;20128;-81
2023/01/14 01:56:53;;;;;;;22.02;3.85;;;7.00;99.90;;;;;;5021235;28;20046;-80
2023/01/14 01:59:23;;;;;;;21.00;3.35;;;7.10;99.90;;;;;;5004379;28;20125;-81
2023/01/14 02:01:50;;;;;;;20.60;3.75;;;6.90;99.90;;;;;;5004968;28;20050;-80
2023/01/14 02:04:16;;;;;;;21.85;3.85;;;6.80;99.90;;;;;;5018126;28;20034;-80
2023/01/14 02:06:41;;;;;;;16.35;3.47;;;6.90;99.90;;;;;;5020224;28;20452;-81
2023/01/14 02:09:07;;;;;;;16.58;4.75;;;6.80;99.90;;;;;;5020022;28;20088;-81
2023/01/14 02:11:54;;;;;;;21.30;3.50;;;6.80;99.90;;;;;;5003925;28;20057;-81
2023/01/14 02:14:34;;;;;;;21.40;3.78;;;7.10;99.90;;;;;;5004382;28;20531;-80
2023/01/14 02:17:19;;;;;;;18.63;3.50;;;6.80;99.90;;;;;;5004072;28;20042;-81
2023/01/14 02:19:48;;;;;;;16.15;3.72;;;6.80;99.90;;;;;;5019949;28;20050;-81
2023/01/14 02:22:33;;;;;;;20.95;4.22;;;7.00;99.90;;;;;;5004209;28;20046;-81
2023/01/14 02:25:10;;;;;;;12.73;3.50;;;7.00;99.90;;;;;;5019426;28;20072;-81
2023/01/14 02:27:48;;;;;;;16.23;3.17;;;6.80;99.90;;;;;;5002589;28;20041;-81
2023/01/14 02:30:39;;;;;;;18.40;3.78;;;7.00;99.90;;;;;;5018971;28;20404;-81
2023/01/14 02:33:49;;;;;;;19.63;4.07;;;7.10;99.90;;;;;;5017834;28;20133;-80
2023/01/14 02:36:29;;;;;;;23.13;3.45;;;6.90;99.90;;;;;;4962259;28;20061;-81
2023/01/14 02:39:16;;;;;;;19.05;3.67;;;7.10;99.90;;;;;;4960916;28;20042;-78
2023/01/14 02:44:35;;;;;;;16.92;3.67;;;7.00;99.90;;;;;;5012067;28;20054;-78
2023/01/14 02:47:03;;;;;;;16.08;3.30;;;7.00;99.90;;;;;;5018237;28;20526;-81
2023/01/14 02:49:33;;;;;;;17.88;3.38;;;7.00;99.90;;;;;;5016768;28;20165;-80
2023/01/14 02:51:59;;;;;;;15.60;4.22;;;6.90;99.90;;;;;;5000712;28;20096;-80
2023/01/14 02:54:27;;;;;;;15.23;3.97;;;7.10;99.90;;;;;;4999197;28;20034;-80
2023/01/14 02:56:56;;;;;;;14.35;3.22;;;6.90;99.90;;;;;;5016055;28;20037;-80
2023/01/14 02:59:51;;;;;;;15.32;3.85;;;6.90;99.90;;;;;;5016913;28;20077;-81
2023/01/14 03:02:31;;;;;;;15.52;3.00;;;6.80;99.90;;;;;;4997390;28;20045;-81
2023/01/14 03:05:27;;;;;;;16.45;2.80;;;6.90;99.90;;;;;;5017142;28;20415;-80
2023/01/14 03:08:05;;;;;;;25.38;4.25;;;6.80;99.90;;;;;;4991559;28;20128;-80
2023/01/14 03:10:38;;;;;;;11.57;3.42;;;6.80;99.90;;;;;;4989703;28;20045;-80
2023/01/14 03:13:25;;;;;;;18.10;3.60;;;6.90;99.90;;;;;;4999761;28;20053;-80
2023/01/14 03:16:14;;;;;;;22.80;3.85;;;7.00;99.90;;;;;;5016382;28;20125;-81
2023/01/14 03:18:49;;;;;;;18.08;3.55;;;6.90;99.90;;;;;;5017011;28;20037;-81
2023/01/14 03:21:22;;;;;;;15.35;3.20;;;6.60;99.90;;;;;;5000531;28;20052;-81
2023/01/14 03:24:00;;;;;;;20.83;3.78;;;6.70;99.90;;;;;;4999486;28;20050;-80
2023/01/14 03:26:31;;;;;;;19.02;4.22;;;6.80;99.90;;;;;;4999725;28;20038;-81
2023/01/14 03:29:00;;;;;;;18.08;4.75;;;6.60;99.90;;;;;;5016157;28;20042;-80
2023/01/14 03:31:28;;;;;;;18.20;3.97;;;6.80;99.90;;;;;;4999538;28;20038;-81
2023/01/14 03:34:10;;;;;;;18.38;3.92;;;6.60;99.90;;;;;;4998623;28;20033;-81
2023/01/14 03:36:38;;;;;;;15.63;3.58;;;6.60;99.90;;;;;;4999316;28;20046;-81
2023/01/14 03:39:30;;;;;;;13.73;3.67;;;6.60;99.90;;;;;;5015010;28;20046;-80
2023/01/14 03:42:18;;;;;;;16.50;4.28;;;6.50;99.90;;;;;;4996478;28;20057;-80
2023/01/14 03:44:54;;;;;;;17.02;3.20;;;6.70;99.90;;;;;;4999455;28;20042;-81
2023/01/14 03:47:21;;;;;;;21.80;3.53;;;6.70;99.90;;;;;;4999176;28;20061;-81
2023/01/14 03:49:50;;;;;;;15.15;3.47;;;6.50;99.90;;;;;;4998993;28;20531;-80
2023/01/14 03:52:30;;;;;;;24.85;4.88;;;6.50;99.90;;;;;;4998329;28;20050;-80
2023/01/14 03:55:03;;;;;;;14.25;3.28;;;6.60;99.90;;;;;;4998307;28;20080;-80
2023/01/14 03:57:45;;;;;;;21.65;4.07;;;6.60;99.90;;;;;;5015063;28;20034;-80
2023/01/14 04:00:18;;;;;;;22.17;4.55;;;6.50;99.90;;;;;;4997282;28;20044;-80
2023/01/14 04:02:44;;;;;;;;;;;6.50;99.90;;;;;;4996482;28;20100;-80
2023/01/14 04:05:10;;;;;;;14.60;3.38;;;6.40;99.90;;;;;;4998802;28;19918;-80
2023/01/14 04:07:36;;;;;;;17.52;3.67;;;6.40;99.90;;;;;;5016321;28;20373;-80
2023/01/14 04:10:02;;;;;;;24.88;4.70;;;6.50;99.90;;;;;;4999502;28;20092;-80
2023/01/14 04:12:28;;;;;;;17.77;5.00;;;6.30;99.90;;;;;;4998240;28;20042;-80
2023/01/14 04:17:37;;;;;;;15.02;3.08;;;6.20;99.90;;;;;;5015348;28;20518;-80
2023/01/14 04:20:05;;;;;;;11.35;2.97;;;6.40;99.90;;;;;;5015120;28;20092;-80
2023/01/14 04:22:30;;;;;;;20.20;3.63;;;6.40;99.90;;;;;;5013740;28;20092;-80
2023/01/14 04:24:56;;;;;;;20.77;3.72;;;6.20;99.90;;;;;;5014433;28;20037;-81
2023/01/14 04:27:21;;;;;;;19.42;4.07;;;6.20;99.90;;;;;;5014469;28;20449;-81
2023/01/14 04:29:47;;;;;;;19.02;3.10;;;6.40;99.90;;;;;;5014083;28;20041;-80
2023/01/14 04:32:13;;;;;;;19.10;3.28;;;6.20;99.90;;;;;;4997362;28;20038;-81
2023/01/14 04:34:38;;;;;;;17.05;3.78;;;6.40;99.90;;;;;;4997378;28;20065;-80
2023/01/14 04:37:04;;;;;;;20.20;3.45;;;6.40;99.90;;;;;;5014596;28;20046;-80
2023/01/14 04:39:29;;;;;;;14.25;3.35;;;6.50;99.90;;;;;;5013757;28;20107;-80
2023/01/14 04:44:39;;;;;;;21.63;2.97;;;6.10;99.90;;;;;;5012872;28;20077;-80
2023/01/14 04:47:04;;;;;;;22.02;4.53;;;6.20;99.90;;;;;;4996840;28;20042;-80
2023/01/14 04:49:30;;;;;;;22.88;4.03;;;6.30;99.90;;;;;;5013388;28;20038;-80
2023/01/14 04:51:55;;;;;;;13.75;3.03;;;6.30;99.90;;;;;;5013908;28;20416;-80
2023/01/14 04:54:21;;;;;;;16.73;2.95;;;6.10;99.90;;;;;;4996218;28;20503;-80
2023/01/14 04:56:47;;;;;;;16.80;3.80;;;6.30;99.90;;;;;;4999402;28;20454;-80
2023/01/14 04:59:12;;;;;;;11.05;2.35;;;6.40;99.90;;;;;;5017707;28;20104;-80
2023/01/14 05:01:38;;;;;;;22.60;4.25;;;6.20;99.90;;;;;;5000826;28;20104;-80
2023/01/14 05:04:03;;;;;;;16.40;3.70;;;6.30;99.90;;;;;;5000152;28;20050;-80
2023/01/14 05:06:29;;;;;;;15.85;3.22;;;6.30;99.90;;;;;;5001076;28;20046;-80
2023/01/14 05:08:55;;;;;;;14.90;2.63;;;6.20;99.90;;;;;;5001274;28;20041;-80
2023/01/14 05:11:21;;;;;;;10.60;3.20;;;6.20;99.90;;;;;;5000374;28;20046;-78
2023/01/14 05:13:46;;;;;;;19.00;3.28;;;6.20;99.90;;;;;;4996299;28;20052;-78
2023/01/14 05:16:12;;;;;;;13.13;3.28;;;6.10;99.90;;;;;;5016138;28;20099;-78
2023/01/14 05:18:37;;;;;;;16.90;3.17;;;6.00;99.90;;;;;;5000242;28;20114;-78
2023/01/14 05:21:04;;;;;;;14.35;3.42;;;6.00;99.90;;;;;;5016283;28;20091;-78
2023/01/14 05:23:30;;;;;;;11.82;3.00;;;6.20;99.90;;;;;;4998556;28;20049;-78
2023/01/14 05:25:55;;;;;;;21.00;3.60;;;6.20;99.90;;;;;;5016809;28;20053;-78
2023/01/14 05:28:21;;;;;;;15.68;3.85;;;6.10;99.90;;;;;;4999336;28;20037;-78
2023/01/14 05:30:47;;;;;;;21.48;3.50;;;6.00;99.90;;;;;;5016057;28;20038;-78
2023/01/14 05:33:13;;;;;;;17.35;3.65;;;6.00;99.90;;;;;;5015986;28;20030;-78
2023/01/14 05:35:39;;;;;;;19.05;4.03;;;6.10;99.90;;;;;;5015745;28;20046;-79
2023/01/14 05:38:06;;;;;;;16.88;4.25;;;6.20;99.90;;;;;;4998974;28;20045;-79
2023/01/14 05:40:32;;;;;;;12.77;2.97;;;6.00;99.90;;;;;;4998831;28;20042;-79
2023/01/14 05:45:49;;;;;;;11.73;3.95;;;6.30;99.90;;;;;;5015642;28;20084;-78
2023/01/14 05:48:16;;;;;;;15.45;3.00;;;6.20;99.90;;;;;;4998798;28;20412;-79
2023/01/14 05:50:42;;;;;;;20.13;3.85;;;6.00;99.90;;;;;;5013916;28;20069;-78
2023/01/14 05:53:08;;;;;;;14.80;4.03;;;6.00;99.90;;;;;;4998308;28;20041;-78
2023/01/14 05:55:34;;;;;;;21.52;3.65;;;6.10;99.90;;;;;;4998721;28;20046;-78
2023/01/14 05:58:01;;;;;;;13.27;3.92;;;6.00;99.90;;;;;;5014533;28;20084;-79
2023/01/14 06:08:43;;;;;;;14.15;3.85;;;6.30;99.90;;;;;;5014274;28;20042;-79
2023/01/14 06:11:09;;;;;;;23.60;4.60;;;6.40;99.90;;;;;;5013618;28;20492;-79
2023/01/14 06:13:35;;;;;;;18.58;3.60;;;6.10;99.90;;;;;;4996574;28;20038;-79
2023/01/14 06:16:02;;;;;;;23.40;4.32;;;6.20;99.90;;;;;;4997503;28;20038;-79
2023/01/14 06:18:37;;;;;;;14.45;3.90;;;6.00;99.90;;;;;;5014592;28;20050;-79
2023/01/14 06:21:03;;;;;;;16.67;4.32;;;6.00;99.90;;;;;;5014279;28;20045;-79
2023/01/14 06:23:29;;;;;;;17.25;4.60;;;6.10;99.90;;;;;;5015238;28;20130;-79
2023/01/14 06:25:55;;;;;;;19.95;4.55;;;6.30;99.90;;;;;;5014496;28;20042;-79
2023/01/14 06:28:20;;;;;;;18.05;4.82;;;6.40;99.90;;;;;;5015649;28;20033;-79
2023/01/14 06:30:46;;;;;;;24.58;5.15;;;6.30;99.90;;;;;;4998365;28;20578;-79
2023/01/14 06:33:11;;;;;;;20.50;4.97;;;6.10;99.90;;;;;;5013665;28;20408;-79
2023/01/14 06:35:44;;;;;;;27.45;5.78;;;6.20;99.90;;;;;;5015041;28;20042;-79
2023/01/14 06:38:11;;;;;;;21.90;5.90;;;6.10;99.90;;;;;;5014830;28;20515;-79
2023/01/14 06:40:38;;;;;;;25.13;6.05;;;6.10;99.90;;;;;;4998464;28;20049;-79
2023/01/14 06:43:05;;;;;;;29.40;6.53;;;5.90;99.90;;;;;;4997755;28;20056;-79
2023/01/14 06:45:30;;;;;;;21.40;6.00;;;6.00;99.90;;;;;;4998150;28;20045;-79
2023/01/14 06:47:56;;;;;;;25.65;5.88;;;6.00;99.90;;;;;;4998299;28;20041;-78
2023/01/14 06:50:22;;;;;;;25.98;6.25;;;6.30;99.90;;;;;;4997062;28;20034;-78
2023/01/14 06:52:52;;;;;;;23.58;6.72;;;5.90;99.90;;;;;;4996629;28;20044;-78
2023/01/14 06:55:21;;;;;;;26.00;7.10;;;6.20;99.90;;;;;;4997546;28;20049;-78
2023/01/14 06:57:46;;;;;;;19.92;6.15;;;6.20;99.90;;;;;;4997405;28;20038;-78
2023/01/14 07:00:13;;;;;;;20.40;8.10;;;6.00;99.90;;;;;;5014291;28;20045;-78
2023/01/14 07:02:39;;;;;;;27.23;6.88;;;6.20;99.90;;;;;;5013378;28;20037;-79
2023/01/14 07:05:06;;;;;;;35.35;7.82;;;6.00;99.90;;;;;;4998310;28;20176;-78
2023/01/14 07:07:31;;;;;;;22.77;6.93;;;6.10;99.90;;;;;;5014866;28;20050;-79
2023/01/14 07:09:57;;;;;;;33.28;7.32;;;5.90;99.90;;;;;;5015664;28;20488;-79
2023/01/14 07:12:22;;;;;;;39.15;8.18;;;6.30;99.90;;;;;;4999073;28;20099;-80
2023/01/14 07:14:48;;;;;;;26.73;6.82;;;6.20;99.90;;;;;;4998517;28;20037;-79
2023/01/14 07:17:13;;;;;;;25.52;6.47;;;6.20;99.90;;;;;;5015476;28;20415;-79
2023/01/14 07:19:39;;;;;;;31.80;7.00;;;6.00;99.90;;;;;;5016268;28;20496;-79
2023/01/14 07:22:05;;;;;;;26.80;7.20;;;6.10;99.90;;;;;;5016351;23;20413;-78
2023/01/14 07:24:30;;;;;;;24.63;6.57;;;6.30;99.90;;;;;;4989654;28;20038;-77
2023/01/14 07:26:56;;;;;;;27.50;7.75;;;6.30;99.90;;;;;;4990156;28;20046;-77
2023/01/14 07:29:22;;;;;;;27.65;6.18;;;6.40;99.90;;;;;;4989989;28;20034;-78
2023/01/14 07:31:47;;;;;;;32.70;6.85;;;6.20;99.90;;;;;;5004061;28;20037;-77
2023/01/14 07:34:13;;;;;;;23.75;6.97;;;6.20;99.90;;;;;;5008831;28;20107;-77
2023/01/14 07:36:39;;;;;;;26.40;6.30;;;6.30;99.90;;;;;;5009310;28;20045;-78
2023/01/14 07:39:04;;;;;;;26.38;7.00;;;6.20;99.90;;;;;;5011073;28;20053;-77
2023/01/14 07:41:30;;;;;;;34.67;7.32;;;6.50;99.90;;;;;;4995320;28;20046;-78
2023/01/14 07:43:55;;;;;;;28.58;7.00;;;6.20;99.90;;;;;;5010643;28;20044;-77
2023/01/14 07:46:21;;;;;;;27.95;6.15;;;6.40;99.90;;;;;;5011139;28;20050;-77
2023/01/14 07:48:46;;;;;;;30.15;6.93;;;6.50;99.90;;;;;;5012611;28;20415;-77
2023/01/14 07:51:15;;;;;;;37.45;6.88;;;6.20;99.90;;;;;;5011134;28;20468;-77
2023/01/14 07:53:41;;;;;;;34.95;7.65;;;6.30;99.90;;;;;;4993906;28;20034;-77
2023/01/14 07:56:07;;;;;;;33.35;7.65;;;6.30;99.90;;;;;;5011433;28;20057;-77
2023/01/14 07:58:33;;;;;;;29.75;6.07;;;6.40;99.90;;;;;;5010449;28;20133;-77
2023/01/14 08:01:05;;;;;;;33.78;6.32;;;6.50;99.90;;;;;;4993760;28;20057;-77
2023/01/14 08:03:30;;;;;;;28.23;6.45;;;6.30;99.90;;;;;;5011169;28;20037;-79
2023/01/14 08:06:00;;;;;;;27.63;7.15;;;6.40;99.90;;;;;;5010877;28;20463;-77
2023/01/14 08:08:26;;;;;;;26.45;6.28;;;6.60;99.90;;;;;;5010952;28;20044;-77
2023/01/14 08:10:51;;;;;;;29.33;6.07;;;6.40;99.90;;;;;;5010648;28;20034;-77
2023/01/14 08:13:17;;;;;;;30.02;7.40;;;6.50;99.90;;;;;;5009840;28;20045;-77
2023/01/14 08:15:42;;;;;;;30.52;7.50;;;6.40;99.90;;;;;;4994352;28;20397;-77
2023/01/14 08:18:08;;;;;;;32.75;7.13;;;6.60;99.90;;;;;;4993528;28;20042;-77
2023/01/14 08:20:33;;;;;;;24.60;6.65;;;6.70;99.90;;;;;;5009828;28;20046;-77
2023/01/14 08:23:00;;;;;;;22.20;6.13;;;6.60;99.90;;;;;;5009480;28;20518;-77
2023/01/14 08:25:27;;;;;;;26.55;8.05;;;6.70;99.90;;;;;;5011404;28;20473;-76
2023/01/14 08:27:53;;;;;;;22.88;5.72;;;6.60;99.90;;;;;;5010383;28;20040;-78
2023/01/14 08:30:19;;;;;;;23.25;6.05;;;6.70;99.90;;;;;;5010639;28;20463;-77
2023/01/14 08:32:44;;;;;;;18.00;6.25;;;6.50;99.90;;;;;;5009871;28;20093;-77
2023/01/14 08:35:10;;;;;;;26.30;5.40;;;6.80;99.90;;;;;;4994070;28;20389;-77
2023/01/14 08:37:36;;;;;;;24.00;6.07;;;6.50;99.90;;;;;;4994466;28;20037;-77
2023/01/14 08:40:02;;;;;;;22.20;5.03;;;6.70;99.90;;;;;;4994117;28;20050;-77
2023/01/14 08:42:28;;;;;;;22.02;5.43;;;6.80;99.90;;;;;;5009427;28;20041;-76
2023/01/14 08:44:53;;;;;;;24.60;6.22;;;6.80;99.90;;;;;;5010519;28;20034;-76
2023/01/14 08:47:19;;;;;;;34.60;6.78;;;6.80;99.90;;;;;;5013191;28;20042;-75
2023/01/14 08:49:44;;;;;;;22.27;5.38;;;6.90;99.90;;;;;;5018011;28;20526;-75
2023/01/14 08:52:11;;;;;;;24.90;5.80;;;6.90;99.90;;;;;;5017123;28;20096;-75
2023/01/14 08:54:36;;;;;;;31.10;6.40;;;6.80;99.90;;;;;;5016802;28;20045;-75
2023/01/14 08:57:02;;;;;;;19.58;5.38;;;6.80;99.90;;;;;;5017398;28;20107;-74
2023/01/14 08:59:27;;;;;;;29.30;6.95;;;6.80;99.90;;;;;;5018201;28;20554;-75
2023/01/14 09:01:53;;;;;;;21.35;5.05;;;6.60;99.90;;;;;;5016970;28;20585;-74
2023/01/14 09:04:19;;;;;;;21.58;5.50;;;6.80;99.90;;;;;;5016197;28;20046;-75
2023/01/14 09:17:43;;;;;;;21.00;4.75;;;6.60;99.90;;;;;;5016797;28;20049;-74
2023/01/14 09:20:16;;;;;;;27.65;5.50;;;6.60;99.90;;;;;;5018080;28;20041;-74
2023/01/14 09:22:41;;;;;;;21.65;5.20;;;6.50;99.90;;;;;;5016102;28;20456;-74
2023/01/14 09:25:07;;;;;;;21.80;4.50;;;6.60;99.90;;;;;;5017007;28;20472;-74
2023/01/14 09:27:33;;;;;;;21.33;4.63;;;6.60;99.90;;;;;;5017951;28;20137;-74
2023/01/14 09:29:58;;;;;;;21.33;5.25;;;6.80;99.90;;;;;;5018251;28;20037;-74
2023/01/14 09:32:24;;;;;;;16.23;4.15;;;6.60;99.90;;;;;;5016922;28;20084;-74
2023/01/14 09:34:52;;;;;;;25.10;5.50;;;6.70;99.90;;;;;;5017097;28;20373;-74
2023/01/14 09:37:19;;;;;;;24.90;6.03;;;6.70;99.90;;;;;;5016629;28;20130;-75
2023/01/14 09:39:46;;;;;;;28.58;5.85;;;6.70;99.90;;;;;;5017688;28;20040;-74
2023/01/14 09:42:16;;;;;;;25.15;4.72;;;6.60;99.90;;;;;;5017474;28;20034;-74
2023/01/14 09:44:43;;;;;;;17.45;4.72;;;6.90;99.90;;;;;;5017767;28;20038;-74
2023/01/14 09:47:17;;;;;;;21.77;5.18;;;6.70;99.90;;;;;;5018286;28;20063;-75
2023/01/14 09:49:44;;;;;;;18.17;4.55;;;6.70;99.90;;;;;;5017913;28;20034;-74
2023/01/14 09:52:47;;;;;;;18.42;4.13;;;6.70;99.90;;;;;;5017592;28;20498;-74
2023/01/14 09:55:34;;;;;;;22.88;4.43;;;6.80;99.90;;;;;;5000360;28;20041;-75
2023/01/14 09:58:28;;;;;;;22.25;5.10;;;6.80;99.90;;;;;;5017439;28;20033;-74
2023/01/14 10:01:16;;;;;;;16.73;3.50;;;6.70;99.90;;;;;;5010206;28;20045;-75
2023/01/14 10:04:05;;;;;;;18.85;4.53;;;6.70;99.90;;;;;;5007549;28;20492;-74
2023/01/14 10:06:31;;;;;;;15.98;3.78;;;6.70;99.90;;;;;;5013167;28;20058;-74
2023/01/14 10:09:07;;;;;;;18.33;3.55;;;6.90;99.90;;;;;;5013035;28;20048;-74
2023/01/14 10:11:37;;;;;;;11.63;3.50;;;6.80;99.90;;;;;;5013200;28;20100;-75
2023/01/14 10:14:22;;;;;;;13.30;3.45;;;6.80;99.90;;;;;;5012619;28;20046;-75
2023/01/14 10:16:52;;;;;;;5.40;2.70;;;6.90;99.90;;;;;;5013328;28;20621;-74
2023/01/14 10:19:20;;;;;;;13.60;4.25;;;6.80;99.90;;;;;;5013046;28;20057;-74
2023/01/14 10:21:49;;;;;;;16.73;3.38;;;6.80;99.90;;;;;;5008249;28;20048;-75
2023/01/14 10:24:18;;;;;;;14.23;2.92;;;6.80;99.90;;;;;;5013531;28;20376;-75
2023/01/14 10:26:46;;;;;;;13.15;3.05;;;6.90;99.90;;;;;;5014336;28;20174;-75
2023/01/14 10:29:21;;;;;;;10.85;3.08;;;6.80;99.90;;;;;;5012922;28;20034;-75
2023/01/14 10:31:57;;;;;;;9.77;2.78;;;6.90;99.90;;;;;;5012699;28;20537;-75
2023/01/14 10:34:47;;;;;;;10.25;3.17;;;7.00;99.90;;;;;;5004761;28;20030;-75
2023/01/14 10:37:13;;;;;;;9.32;3.63;;;7.00;99.90;;;;;;5014355;28;20038;-75
2023/01/14 10:39:50;;;;;;;10.90;2.45;;;6.90;99.90;;;;;;5014084;28;20403;-75
2023/01/14 10:42:29;;;;;;;12.63;3.10;;;6.90;99.90;;;;;;5012320;28;20500;-75
2023/01/14 10:44:55;;;;;;;8.13;2.80;;;6.90;99.90;;;;;;5013004;28;20073;-75
2023/01/14 10:47:24;;;;;;;7.50;2.70;;;7.00;99.90;;;;;;5013913;28;20132;-74
2023/01/14 10:50:00;;;;;;;10.57;2.90;;;7.10;99.90;;;;;;5012854;28;20084;-75
2023/01/14 10:52:26;;;;;;;6.75;2.50;;;7.20;99.90;;;;;;5013010;28;20052;-75
2023/01/14 10:55:12;;;;;;;7.65;2.75;;;7.20;99.90;;;;;;5012524;28;20072;-71
2023/01/14 10:57:47;;;;;;;7.85;2.92;;;7.30;99.90;;;;;;5013404;28;20573;-70
2023/01/14 11:00:33;;;;;;;5.30;2.67;;;7.20;99.90;;;;;;5013015;28;20042;-70
2023/01/14 11:02:59;;;;;;;14.65;4.32;;;7.30;99.90;;;;;;5012705;28;20100;-70
2023/01/14 11:05:33;;;;;;;5.18;2.78;;;7.50;99.90;;;;;;5011948;28;20096;-70
2023/01/14 11:08:22;;;;;;;9.38;2.60;;;7.60;99.90;;;;;;5012223;28;20113;-71
2023/01/14 11:10:57;;;;;;;8.60;2.70;;;7.50;99.90;;;;;;5010731;28;20129;-70
2023/01/14 11:13:33;;;;;;;5.57;2.50;;;7.60;99.90;;;;;;5012371;28;20125;-71
2023/01/14 11:15:59;;;;;;;8.30;2.22;;;7.70;99.90;;;;;;5012259;28;20046;-70
2023/01/14 11:18:31;;;;;;;7.32;2.40;;;7.70;99.90;;;;;;5013419;28;20041;-70
2023/01/14 11:21:06;;;;;;;6.47;1.95;;;7.70;99.90;;;;;;5013083;28;20170;-70
2023/01/14 11:23:34;;;;;;;6.10;2.65;;;7.80;99.90;;;;;;5011331;28;20042;-70
2023/01/14 11:26:11;;;;;;;4.93;2.28;;;7.90;99.90;;;;;;5011469;28;20061;-70
2023/01/14 11:28:42;;;;;;;5.60;2.40;;;7.70;99.90;;;;;;5012849;28;20042;-70
2023/01/14 11:31:09;;;;;;;4.25;1.83;;;7.70;99.90;;;;;;4986736;28;20034;-69
2023/01/14 11:33:48;;;;;;;4.00;2.00;;;7.70;99.90;;;;;;4969087;28;20323;-68
2023/01/14 11:36:23;;;;;;;6.80;1.77;;;7.80;99.90;;;;;;4972397;28;20317;-68
2023/01/14 11:38:50;;;;;;;4.05;1.63;;;7.70;99.90;;;;;;4970129;28;20061;-70
2023/01/14 11:41:48;;;;;;;6.13;2.08;;;7.90;99.90;;;;;;4969194;28;20045;-69
2023/01/14 11:44:14;;;;;;;6.55;2.13;;;7.80;99.90;;;;;;4949422;28;20275;-69
2023/01/14 11:46:42;;;;;;;4.30;1.90;;;7.80;99.90;;;;;;4971149;28;20879;-69
2023/01/14 11:49:18;;;;;;;6.15;1.70;;;7.90;99.90;;;;;;4971339;28;20050;-69
2023/01/14 11:52:01;;;;;;;4.65;1.90;;;7.80;99.90;;;;;;4970453;28;20046;-70
2023/01/14 11:54:47;;;;;;;3.85;2.40;;;7.80;99.90;;;;;;4971348;28;20231;-69
2023/01/14 11:57:16;;;;;;;5.85;1.88;;;7.80;99.90;;;;;;4969357;28;20104;-69
2023/01/14 11:59:43;;;;;;;3.40;1.70;;;7.80;99.90;;;;;;4964383;28;20135;-68
2023/01/14 12:02:30;;;;;;;4.55;2.20;;;8.00;99.90;;;;;;4966070;28;20637;-69
2023/01/14 12:05:04;;;;;;;4.45;1.80;;;7.90;99.90;;;;;;4970853;28;20265;-69
2023/01/14 12:08:06;;;;;;;5.75;1.75;;;7.80;99.90;;;;;;4968560;28;20980;-69
2023/01/14 12:10:40;;;;;;;6.80;2.33;;;7.90;99.90;;;;;;4957568;28;20060;-69
2023/01/14 12:19:06;;;;;;;2.42;1.63;;;7.80;99.90;;;;;;4967423;28;20276;-69
2023/01/14 12:21:41;;;;;;;5.15;1.80;;;7.90;99.90;;;;;;4966362;28;20279;-70
2023/01/14 12:24:20;;;;;;;4.22;2.13;;;7.90;99.90;;;;;;4971826;28;20062;-70
2023/01/14 12:26:47;;;;;;;7.18;1.80;;;8.10;99.90;;;;;;4969225;28;20045;-70
2023/01/14 12:29:19;;;;;;;4.28;1.40;;;8.00;99.90;;;;;;4970726;28;20049;-69
2023/01/14 12:31:52;;;;;;;2.58;1.40;;;8.00;99.90;;;;;;4970493;28;20038;-71
2023/01/14 12:34:37;;;;;;;3.45;1.45;;;8.00;99.90;;;;;;4970265;28;20920;-71
2023/01/14 12:37:12;;;;;;;6.10;1.48;;;8.00;99.90;;;;;;4969276;28;20050;-71
2023/01/14 12:45:44;;;;;;;4.90;1.73;;;8.20;99.90;;;;;;4970815;28;20112;-71
2023/01/14 12:48:11;;;;;;;5.45;1.73;;;8.00;99.90;;;;;;4970957;28;20173;-71
2023/01/14 12:50:44;;;;;;;5.30;1.70;;;8.10;99.90;;;;;;4969107;28;20586;-71
2023/01/14 12:53:18;;;;;;;4.38;1.15;;;8.10;99.90;;;;;;4971142;28;20073;-71
2023/01/14 12:55:46;;;;;;;6.28;1.27;;;8.10;99.90;;;;;;4971403;28;20034;-71
2023/01/14 12:58:20;;;;;;;3.00;1.30;;;8.10;99.90;;;;;;4969024;28;20471;-71
2023/01/14 13:00:50;;;;;;;;;;;8.20;99.90;;;;;;4966378;28;20726;-71
2023/01/14 13:03:25;;;;;;;3.50;1.15;;;8.10;99.90;;;;;;4969845;28;20454;-71
2023/01/14 13:05:53;;;;;;;3.20;1.33;;;8.30;99.90;;;;;;4953562;28;20046;-70
2023/01/14 13:08:24;;;;;;;2.97;1.30;;;8.20;99.90;;;;;;4969800;28;20243;-71
2023/01/14 13:11:01;;;;;;;4.35;1.40;;;8.30;99.90;;;;;;4966301;28;20038;-70
2023/01/14 13:13:29;;;;;;;3.05;0.98;;;8.20;99.90;;;;;;4966447;28;20149;-70
2023/01/14 13:15:58;;;;;;;5.82;1.63;;;8.30;99.90;;;;;;4969504;28;20073;-69
2023/01/14 13:18:40;;;;;;;3.08;1.50;;;8.30;99.90;;;;;;4968107;28;20136;-69
2023/01/14 13:21:08;;;;;;;3.40;1.30;;;8.40;99.90;;;;;;4964830;28;20033;-70
2023/01/14 13:23:37;;;;;;;2.05;1.30;;;8.30;99.90;;;;;;4969614;28;20718;-70
2023/01/14 13:26:28;;;;;;;4.97;1.40;;;8.40;99.90;;;;;;4970058;28;20053;-70
2023/01/14 13:29:22;;;;;;;3.13;1.00;;;8.50;99.90;;;;;;4970051;28;20049;-70
2023/01/14 13:31:48;;;;;;;2.05;1.45;;;8.50;99.90;;;;;;4968945;28;20074;-70
2023/01/14 13:34:23;;;;;;;1.67;1.00;;;8.60;99.90;;;;;;4971236;28;20586;-70
2023/01/14 13:37:02;;;;;;;5.60;1.85;;;8.60;99.90;;;;;;4973376;28;20270;-71
2023/01/14 13:39:30;;;;;;;1.70;0.90;;;8.60;99.90;;;;;;4972305;28;20120;-76
2023/01/14 13:41:58;;;;;;;4.28;1.00;;;8.60;99.90;;;;;;4970031;28;20103;-77
2023/01/14 13:44:35;;;;;;;1.77;1.10;;;8.60;99.90;;;;;;4972376;28;20111;-77
2023/01/14 13:47:15;;;;;;;2.55;1.00;;;8.60;99.90;;;;;;4971535;28;20056;-76
2023/01/14 13:49:50;;;;;;;5.32;1.00;;;8.60;99.90;;;;;;4971705;28;20080;-76